Nearby METAR Reports

 

LFSL - Brive/Souillac, France
Distance from station: N 70km
Mise à jour: 25/02/2024 01:30
couvert
couvert
 Wind from S
Vent: S 11 km/h
Température: 5°C
Wind Chill: 2°C
Point de rosée: 4°C
Humidité: 93%
Baromètre: 1008 hPa
Clouds: couvert
Visibility: 10 km
Cloud details: couvert 183 m
2024/02/25 00:30 LFSL 250030Z AUTO 18006KT 150V220 9999 OVC006 05/04 Q1008
LFCR - Rodez/Marcillac, France
Distance from station: E 71km
Mise à jour: 25/02/2024 01:30
couvert
couvert
 Wind from SSO
Vent: SSO 9 km/h
Température: 4°C
Wind Chill: 2°C
Point de rosée: 2°C
Humidité: 87%
Baromètre: 1010 hPa
Clouds: couvert
Visibility: 10 km
Cloud details: couvert 244 m
2024/02/25 00:30 LFCR 250030Z AUTO 21005KT 9999 OVC008 04/02 Q1010
 
LFBA - Agen/La Garenne, France
Distance from station: OSO 82km
Mise à jour: 25/02/2024 01:30
clair
clair
 Wind from SO
Vent: SO 17 km/h
Température: 8°C
Wind Chill: 5°C
Point de rosée: 5°C
Humidité: 82%
Baromètre: 1009 hPa
Résumé: clair
Visibility: greater than 10 km
2024/02/25 00:30 LFBA 250030Z AUTO 22009KT 200V260 CAVOK 08/05 Q1009
LFLW - Aurillac (aut), France
Distance from station: NE 85km
Mise à jour: 03/01/2024 12:00
NOT Current
Thunderstorm
Thunderstorm
 Wind from SO
Vent: SO 9 km/h
Température: 9°C
Wind Chill: 7°C
Point de rosée: 7°C
Humidité: 87%
Baromètre: 1013 hPa
Clouds: Thunderstorm
Visibility: 10 km
Cloud details: Few Clouds 427 m
nuageux 671 m
nuageux 884 m
2024/01/03 11:00 LFLW 031100Z AUTO 23005KT 200V260 9999 FEW014/// BKN022/// BKN029/// ///TCU 09/07 Q1013 BECMG BKN025
 
LFBO - Toulouse/Blagnac, France
Distance from station: S 90km
Mise à jour: 25/02/2024 01:30
clair
clair
 Wind from S
Vent: S 11 km/h
Température: 6°C
Wind Chill: 4°C
Point de rosée: 3°C
Humidité: 81%
Baromètre: 1011 hPa
Résumé: clair
Visibility: greater than 10 km
2024/02/25 00:30 LFBO 250030Z AUTO 17006KT CAVOK 06/03 Q1011
LFBE - Bergerac/Roumani, France
Distance from station: ONO 95km
Mise à jour: 25/02/2024 01:30
Thunderstorm
Thunderstorm
 Wind from SSO
Vent: SSO 19 km/h
Température: 7°C
Wind Chill: 4°C
Point de rosée: 6°C
Humidité: 93%
Baromètre: 1008 hPa
Clouds: Thunderstorm
Visibility: 9 km
Cloud details: Few Clouds 549 m
partiellement nuageux 1036 m
nuageux 1280 m
2024/02/25 00:30 LFBE 250030Z AUTO 20010KT 9000 // FEW018/// SCT034/// BKN042/// ///CB 07/06 Q1008